Time;durP1;ratioP1;P1;durP2;ratioP2;P2;SDS_P1;SDS_P2;PMS_P1;PMS_P2;Temp;Humidity;BMP_temperature;BMP_pressure;BME280_temperature;BME280_humidity;BME280_pressure;Samples;Min_cycle;Max_cycle;Signal;HPM_P1;HPM_P2
2022/01/13 00:00:47;;;;;;;85.80;24.43;;;4.90;96.70;;;;;;5032403;28;20177;-88
2022/01/13 00:03:14;;;;;;;147.97;35.17;;;4.90;96.70;;;;;;5033449;28;20633;-88
2022/01/13 00:05:39;;;;;;;122.67;33.43;;;4.90;96.70;;;;;;5033733;28;20316;-87
2022/01/13 00:08:05;;;;;;;138.23;38.80;;;4.90;96.70;;;;;;5032380;28;20654;-87
2022/01/13 00:10:31;;;;;;;147.03;36.83;;;5.00;96.70;;;;;;5032506;28;20708;-87
2022/01/13 00:13:06;;;;;;;129.70;35.20;;;5.00;96.70;;;;;;5033413;28;20179;-87
2022/01/13 00:15:45;;;;;;;151.67;37.73;;;5.00;96.80;;;;;;5032096;28;20259;-88
2022/01/13 00:18:15;;;;;;;141.03;36.50;;;5.00;96.80;;;;;;5032104;28;20220;-87
2022/01/13 00:21:31;;;;;;;139.27;38.37;;;5.00;96.80;;;;;;5033515;28;20169;-88
2022/01/13 00:23:41;;;;;;;141.33;36.10;;;5.00;96.80;;;;;;5019290;28;20240;-87
2022/01/13 00:26:24;;;;;;;85.00;24.53;;;5.00;96.80;;;;;;5031895;28;20243;-89
2022/01/13 00:28:52;;;;;;;136.90;35.20;;;5.00;96.80;;;;;;5031979;28;20174;-88
2022/01/13 00:31:24;;;;;;;145.80;37.73;;;5.00;96.80;;;;;;5033354;28;20168;-87
2022/01/13 00:33:54;;;;;;;142.47;38.40;;;5.00;96.80;;;;;;5031988;28;20524;-87
2022/01/13 00:36:22;;;;;;;158.60;38.10;;;5.10;96.80;;;;;;5033112;28;20193;-87
2022/01/13 00:38:47;;;;;;;146.93;38.50;;;5.10;96.80;;;;;;5033336;28;20728;-87
2022/01/13 00:41:14;;;;;;;117.60;32.03;;;5.10;96.80;;;;;;5031767;28;20195;-87
2022/01/13 00:43:40;;;;;;;147.60;39.13;;;5.10;96.90;;;;;;5031781;28;20173;-88
2022/01/13 00:46:06;;;;;;;141.83;33.90;;;5.10;96.90;;;;;;5031662;28;20669;-88
2022/01/13 00:48:32;;;;;;;127.83;31.67;;;5.10;96.90;;;;;;5031764;28;20175;-87
2022/01/13 00:50:58;;;;;;;180.77;41.90;;;5.10;96.90;;;;;;5033046;28;20205;-87
2022/01/13 00:53:24;;;;;;;154.10;37.57;;;5.10;96.90;;;;;;5032902;28;20178;-88
2022/01/13 00:55:59;;;;;;;150.20;37.67;;;5.10;96.90;;;;;;5031639;28;20205;-87
2022/01/13 00:58:32;;;;;;;162.40;42.50;;;5.20;96.90;;;;;;5032138;28;20207;-88
2022/01/13 01:00:59;;;;;;;156.37;38.20;;;5.20;96.90;;;;;;5032909;28;20173;-87
2022/01/13 01:03:26;;;;;;;147.67;37.43;;;5.20;96.90;;;;;;5031655;28;20174;-87
2022/01/13 01:05:53;;;;;;;168.47;40.80;;;5.20;96.90;;;;;;5031498;28;20202;-88
2022/01/13 01:08:20;;;;;;;175.40;41.40;;;5.20;96.90;;;;;;5031678;28;20205;-88
2022/01/13 01:10:49;;;;;;;166.07;38.33;;;5.20;96.90;;;;;;5035369;28;20188;-87
2022/01/13 01:13:19;;;;;;;157.43;39.40;;;5.20;96.90;;;;;;5036513;28;20197;-87
2022/01/13 01:15:50;;;;;;;156.63;37.03;;;5.20;96.90;;;;;;5035029;28;20212;-88
2022/01/13 01:26:32;;;;;;;170.67;41.20;;;5.20;96.90;;;;;;5036520;28;20295;-87
2022/01/13 01:29:10;;;;;;;162.33;38.77;;;5.30;97.00;;;;;;5035449;28;20178;-88
2022/01/13 01:31:38;;;;;;;174.17;40.50;;;5.30;97.00;;;;;;5034899;28;20175;-87
2022/01/13 01:36:50;;;;;;;160.73;39.07;;;5.30;97.00;;;;;;5036332;28;20616;-86
2022/01/13 01:39:15;;;;;;;105.80;26.30;;;5.30;97.00;;;;;;5034712;28;20229;-87
2022/01/13 01:41:45;;;;;;;142.03;32.77;;;5.30;97.00;;;;;;5034699;28;20630;-87
2022/01/13 01:44:14;;;;;;;149.70;37.27;;;5.30;97.00;;;;;;5035935;28;20173;-87
2022/01/13 01:46:44;;;;;;;137.83;36.07;;;5.30;97.00;;;;;;5034491;28;20289;-87
2022/01/13 01:49:16;;;;;;;167.47;41.17;;;5.30;97.00;;;;;;5035893;28;20233;-88
2022/01/13 01:51:43;;;;;;;150.23;37.87;;;5.30;97.00;;;;;;5035769;28;20152;-88
2022/01/13 01:54:09;;;;;;;157.50;38.97;;;5.30;97.00;;;;;;5035706;28;20649;-87
2022/01/13 01:56:36;;;;;;;112.03;28.77;;;5.30;97.00;;;;;;5035573;28;20248;-87
2022/01/13 01:59:04;;;;;;;143.33;38.37;;;5.30;97.00;;;;;;5035529;28;20195;-87
2022/01/13 02:01:30;;;;;;;112.40;30.13;;;5.30;97.00;;;;;;5034333;28;20198;-87
2022/01/13 02:03:56;;;;;;;142.97;37.67;;;5.30;97.00;;;;;;5034416;28;20634;-87
2022/01/13 02:06:22;;;;;;;108.60;29.43;;;5.30;97.00;;;;;;5034137;28;20697;-87
2022/01/13 02:08:48;;;;;;;111.27;29.07;;;5.30;97.00;;;;;;5035715;28;20167;-86
2022/01/13 02:11:14;;;;;;;137.03;36.00;;;5.30;97.00;;;;;;5035530;28;20187;-87
2022/01/13 02:13:48;;;;;;;144.90;37.17;;;5.30;97.00;;;;;;5035417;28;20682;-87
2022/01/13 02:16:56;;;;;;;120.77;31.90;;;5.30;97.00;;;;;;5033907;28;20582;-87
2022/01/13 02:19:03;;;;;;;97.10;29.67;;;5.30;97.00;;;;;;5029776;28;20215;-87
2022/01/13 02:21:28;;;;;;;144.07;38.00;;;5.30;97.00;;;;;;5033064;28;20183;-87
2022/01/13 02:23:55;;;;;;;121.83;32.57;;;5.30;97.00;;;;;;5034046;28;20180;-87
2022/01/13 02:26:21;;;;;;;103.93;29.00;;;5.30;97.00;;;;;;5033807;28;20202;-88
2022/01/13 02:28:49;;;;;;;140.63;36.43;;;5.30;97.00;;;;;;5033811;28;20194;-87
2022/01/13 02:31:14;;;;;;;140.50;36.63;;;5.30;97.00;;;;;;5033779;28;20199;-87
2022/01/13 02:33:40;;;;;;;101.80;28.37;;;5.30;97.00;;;;;;5035062;28;20259;-87
2022/01/13 02:36:10;;;;;;;126.10;34.20;;;5.30;97.00;;;;;;5033693;28;20211;-87
2022/01/13 02:38:36;;;;;;;150.27;39.67;;;5.30;97.00;;;;;;5034773;28;20204;-87
2022/01/13 02:41:03;;;;;;;126.87;35.97;;;5.40;97.00;;;;;;5033582;28;20211;-87
2022/01/13 02:43:33;;;;;;;143.20;38.37;;;5.30;97.00;;;;;;5033493;28;20202;-87
2022/01/13 02:48:43;;;;;;;127.13;30.43;;;5.30;97.00;;;;;;5034757;28;20169;-87
2022/01/13 02:51:09;;;;;;;70.47;18.73;;;5.30;97.00;;;;;;5033560;28;20174;-87
2022/01/13 02:53:35;;;;;;;149.57;40.03;;;5.30;97.00;;;;;;5033443;28;20232;-87
2022/01/13 02:56:04;;;;;;;130.93;35.47;;;5.40;97.00;;;;;;5033245;28;20202;-87
2022/01/13 02:58:30;;;;;;;108.37;28.03;;;5.30;96.90;;;;;;5034625;28;20194;-87
2022/01/13 03:00:56;;;;;;;143.43;39.57;;;5.30;97.00;;;;;;5033209;28;20182;-87
2022/01/13 03:03:22;;;;;;;141.97;37.93;;;5.30;97.00;;;;;;5033158;28;20177;-87
2022/01/13 03:05:48;;;;;;;145.43;42.87;;;5.40;97.00;;;;;;5032946;28;20670;-88
2022/01/13 03:08:13;;;;;;;140.27;37.30;;;5.40;97.00;;;;;;5034340;28;20194;-87
2022/01/13 03:10:39;;;;;;;155.17;40.30;;;5.40;97.00;;;;;;5034594;28;20654;-87
2022/01/13 03:13:06;;;;;;;153.17;41.10;;;5.40;97.00;;;;;;5033163;28;20716;-87
2022/01/13 03:15:32;;;;;;;146.80;37.43;;;5.40;96.90;;;;;;5032852;28;20559;-87
2022/01/13 03:17:58;;;;;;;126.03;34.90;;;5.40;97.00;;;;;;5032920;28;20202;-87
2022/01/13 03:20:24;;;;;;;147.40;38.33;;;5.50;97.00;;;;;;5032829;28;20175;-87
2022/01/13 03:22:49;;;;;;;142.20;40.63;;;5.40;97.00;;;;;;5034315;28;20674;-87
2022/01/13 03:25:21;;;;;;;137.37;37.03;;;5.50;97.00;;;;;;5032740;28;20334;-87
2022/01/13 03:27:52;;;;;;;145.60;42.83;;;5.50;97.00;;;;;;5032868;28;20210;-87
2022/01/13 03:30:18;;;;;;;146.37;38.00;;;5.50;97.00;;;;;;5032879;28;20220;-87
2022/01/13 03:32:44;;;;;;;155.47;38.80;;;5.50;96.90;;;;;;5032615;28;20266;-87
2022/01/13 03:35:09;;;;;;;125.07;37.13;;;5.50;96.90;;;;;;5033830;28;20220;-87
2022/01/13 03:37:35;;;;;;;144.47;38.27;;;5.50;96.90;;;;;;5034053;28;20201;-87
2022/01/13 03:40:01;;;;;;;150.87;41.30;;;5.50;96.90;;;;;;5033780;28;20262;-87
2022/01/13 03:42:27;;;;;;;135.50;40.27;;;5.50;96.90;;;;;;5032483;28;20181;-88
2022/01/13 03:44:54;;;;;;;137.60;36.80;;;5.60;96.90;;;;;;5033679;28;20170;-87
2022/01/13 03:47:20;;;;;;;115.67;30.33;;;5.50;96.90;;;;;;5032614;28;20639;-87
2022/01/13 03:49:46;;;;;;;144.30;41.27;;;5.60;96.90;;;;;;5032555;28;20205;-87
2022/01/13 03:52:24;;;;;;;145.27;41.23;;;5.60;96.90;;;;;;5033912;28;20218;-87
2022/01/13 03:55:15;;;;;;;150.00;40.17;;;5.60;96.90;;;;;;5032366;28;20560;-88
2022/01/13 03:58:16;;;;;;;144.87;41.23;;;5.60;96.90;;;;;;5019224;28;20215;-87
2022/01/13 04:01:15;;;;;;;148.77;41.73;;;5.50;96.80;;;;;;5033904;28;20162;-87
2022/01/13 04:03:41;;;;;;;117.40;32.33;;;5.50;96.80;;;;;;5033703;28;20183;-87
2022/01/13 04:06:32;;;;;;;149.90;40.23;;;5.50;96.80;;;;;;5033397;28;20198;-87
2022/01/13 04:08:57;;;;;;;108.87;31.17;;;5.50;96.80;;;;;;5033387;28;20602;-87
2022/01/13 04:11:28;;;;;;;111.63;31.93;;;5.50;96.80;;;;;;5032227;28;20187;-87
2022/01/13 04:14:01;;;;;;;125.90;36.43;;;5.50;96.80;;;;;;5033441;28;20164;-87
2022/01/13 04:16:30;;;;;;;89.03;25.77;;;5.50;96.80;;;;;;5032286;28;20237;-87
2022/01/13 04:19:04;;;;;;;111.07;36.53;;;5.50;96.80;;;;;;5033327;28;20257;-87
2022/01/13 04:21:30;;;;;;;128.73;35.63;;;5.50;96.80;;;;;;5032190;28;20624;-87
2022/01/13 04:23:57;;;;;;;98.40;27.40;;;5.50;96.80;;;;;;5032126;28;20186;-87
2022/01/13 04:26:31;;;;;;;109.10;32.03;;;5.50;96.80;;;;;;5032071;28;20617;-87
2022/01/13 04:29:18;;;;;;;132.83;37.40;;;5.50;96.80;;;;;;5032027;28;20176;-87
2022/01/13 04:31:47;;;;;;;129.10;35.90;;;5.50;96.80;;;;;;5032062;28;20642;-88
2022/01/13 04:34:13;;;;;;;123.70;36.37;;;5.50;96.80;;;;;;5033156;28;20184;-87
2022/01/13 04:36:39;;;;;;;127.40;35.93;;;5.50;96.80;;;;;;5031879;28;20234;-87
2022/01/13 04:39:06;;;;;;;89.37;27.27;;;5.50;96.80;;;;;;5031811;28;20214;-87
2022/01/13 04:41:36;;;;;;;131.00;37.83;;;5.60;96.80;;;;;;5031911;28;20191;-87
2022/01/13 04:44:09;;;;;;;87.53;25.33;;;5.60;96.80;;;;;;5032904;28;20206;-87
2022/01/13 04:46:35;;;;;;;96.40;26.93;;;5.60;96.80;;;;;;5035750;28;20210;-87
2022/01/13 04:49:01;;;;;;;123.37;36.13;;;5.60;96.80;;;;;;5037180;28;20179;-87
2022/01/13 04:51:27;;;;;;;136.07;35.90;;;5.60;96.70;;;;;;5035624;28;20181;-87
2022/01/13 04:53:53;;;;;;;112.93;30.87;;;5.60;96.80;;;;;;5035714;28;20178;-87
2022/01/13 04:59:04;;;;;;;129.60;34.97;;;5.50;96.70;;;;;;5037265;28;20294;-88
2022/01/13 05:01:30;;;;;;;110.47;30.23;;;5.60;96.80;;;;;;5035471;28;20639;-87
2022/01/13 05:03:56;;;;;;;131.53;37.10;;;5.60;96.70;;;;;;5035778;28;20222;-87
2022/01/13 05:06:22;;;;;;;110.30;30.77;;;5.60;96.70;;;;;;5036514;28;20564;-87
2022/01/13 05:08:48;;;;;;;138.80;36.17;;;5.60;96.70;;;;;;5035364;28;20189;-87
2022/01/13 05:11:15;;;;;;;127.90;35.13;;;5.70;96.70;;;;;;5035334;28;20185;-87
2022/01/13 05:13:41;;;;;;;136.43;36.80;;;5.70;96.70;;;;;;5036578;28;20179;-87
2022/01/13 05:16:10;;;;;;;124.77;36.67;;;5.70;96.70;;;;;;5137611;22;20274;-85
2022/01/13 05:21:05;;;;;;;113.83;33.27;;;5.70;96.70;;;;;;5056444;28;20170;-86
2022/01/13 05:23:31;;;;;;;113.00;36.17;;;5.70;96.70;;;;;;5055650;28;20178;-86
2022/01/13 05:25:58;;;;;;;82.50;26.13;;;5.80;96.60;;;;;;5056104;28;20221;-85
2022/01/13 05:28:24;;;;;;;109.37;32.93;;;5.70;96.60;;;;;;5056071;28;20178;-86
2022/01/13 05:30:51;;;;;;;117.00;36.00;;;5.70;96.60;;;;;;5054700;28;20655;-86
2022/01/13 05:33:16;;;;;;;123.63;36.77;;;5.70;96.50;;;;;;5055928;28;20175;-86
2022/01/13 05:35:43;;;;;;;118.13;34.27;;;5.80;96.50;;;;;;5055829;28;20200;-85
2022/01/13 05:38:09;;;;;;;115.47;29.77;;;5.80;96.50;;;;;;5054496;28;20211;-86
2022/01/13 05:40:36;;;;;;;126.03;37.07;;;5.80;96.50;;;;;;5055757;28;20254;-86
2022/01/13 05:43:03;;;;;;;119.07;36.53;;;5.80;96.40;;;;;;5055768;28;20175;-86
2022/01/13 05:45:30;;;;;;;120.27;37.93;;;5.80;96.40;;;;;;5054348;28;20201;-86
2022/01/13 05:47:58;;;;;;;129.27;38.77;;;5.80;96.30;;;;;;5054499;28;20298;-86
2022/01/13 05:50:24;;;;;;;93.13;30.03;;;5.80;96.30;;;;;;5054335;28;20177;-86
2022/01/13 05:52:50;;;;;;;115.40;35.30;;;5.80;96.20;;;;;;5055599;28;20180;-85
2022/01/13 05:55:17;;;;;;;122.03;38.57;;;5.80;96.20;;;;;;5054262;28;20269;-85
2022/01/13 05:57:43;;;;;;;116.77;39.63;;;5.80;96.10;;;;;;5055410;28;20179;-86
2022/01/13 06:00:11;;;;;;;71.80;24.33;;;5.80;96.10;;;;;;5054118;28;20214;-86
2022/01/13 06:02:37;;;;;;;118.53;37.83;;;5.80;96.10;;;;;;5054145;28;20178;-86
2022/01/13 06:05:03;;;;;;;106.43;36.57;;;5.90;96.10;;;;;;5055335;28;20175;-86
2022/01/13 06:07:29;;;;;;;99.67;31.57;;;5.90;96.00;;;;;;5054315;28;20541;-85
2022/01/13 06:09:54;;;;;;;104.67;34.40;;;5.90;96.00;;;;;;5054053;28;20189;-85
2022/01/13 06:12:31;;;;;;;98.80;33.03;;;5.90;95.80;;;;;;5055272;28;20183;-86
2022/01/13 06:14:56;;;;;;;93.60;34.70;;;5.90;95.80;;;;;;5053951;28;20177;-86
2022/01/13 06:17:22;;;;;;;104.90;37.17;;;5.90;95.70;;;;;;5053577;28;20219;-85
2022/01/13 06:19:48;;;;;;;70.43;26.70;;;5.90;95.70;;;;;;5053727;28;20205;-85
2022/01/13 06:22:13;;;;;;;94.47;34.93;;;5.90;95.70;;;;;;5053722;28;20266;-86
2022/01/13 06:24:39;;;;;;;91.50;30.43;;;5.80;95.60;;;;;;5053711;28;20185;-86
2022/01/13 06:27:04;;;;;;;94.13;33.37;;;5.90;95.60;;;;;;5053723;28;20194;-85
2022/01/13 06:29:30;;;;;;;87.90;33.83;;;5.90;95.60;;;;;;5054824;28;20202;-85
2022/01/13 06:31:56;;;;;;;79.93;29.40;;;5.80;95.50;;;;;;5053648;28;20170;-86
2022/01/13 06:34:22;;;;;;;94.67;33.77;;;5.90;95.40;;;;;;5053465;28;20173;-85
2022/01/13 06:36:48;;;;;;;90.03;31.23;;;5.80;95.40;;;;;;5053773;28;20259;-86
2022/01/13 06:39:13;;;;;;;84.07;29.03;;;5.80;95.40;;;;;;5053383;28;20293;-85
2022/01/13 06:41:40;;;;;;;74.57;28.07;;;5.80;95.40;;;;;;5053361;28;20257;-85
2022/01/13 06:44:06;;;;;;;91.20;34.40;;;5.80;95.30;;;;;;5054546;28;20172;-86
2022/01/13 06:46:32;;;;;;;72.40;26.47;;;5.80;95.20;;;;;;5053246;28;20194;-86
2022/01/13 06:48:58;;;;;;;87.67;32.90;;;5.80;95.20;;;;;;5055098;28;20235;-85
2022/01/13 06:51:23;;;;;;;72.43;28.57;;;5.80;95.20;;;;;;5053252;28;20213;-86
2022/01/13 06:53:49;;;;;;;81.20;30.53;;;5.80;95.20;;;;;;5054449;28;20712;-86
2022/01/13 06:56:15;;;;;;;82.63;29.23;;;5.80;95.20;;;;;;5054554;28;20195;-85
2022/01/13 06:58:44;;;;;;;89.20;31.77;;;5.80;95.20;;;;;;5054266;28;20294;-86
2022/01/13 07:01:10;;;;;;;79.13;30.00;;;5.80;95.20;;;;;;5053033;28;20175;-86
2022/01/13 07:03:35;;;;;;;65.20;26.27;;;5.80;95.20;;;;;;5052968;28;20199;-85
2022/01/13 07:06:01;;;;;;;85.70;32.47;;;5.80;95.10;;;;;;5052992;28;20206;-86
2022/01/13 07:08:27;;;;;;;79.40;30.60;;;5.80;95.10;;;;;;5053732;28;20171;-86
2022/01/13 07:10:52;;;;;;;73.97;30.20;;;5.70;95.10;;;;;;5054601;28;20172;-86
2022/01/13 07:13:18;;;;;;;77.90;31.77;;;5.80;95.10;;;;;;5052740;28;20716;-86
2022/01/13 07:15:45;;;;;;;87.83;32.93;;;5.80;95.10;;;;;;5052627;28;20205;-86
2022/01/13 07:18:12;;;;;;;83.30;33.60;;;5.80;95.10;;;;;;5053899;28;20225;-86
2022/01/13 07:20:39;;;;;;;84.07;32.17;;;5.80;95.10;;;;;;5053949;28;20173;-85
2022/01/13 07:23:05;;;;;;;57.80;23.83;;;5.70;95.00;;;;;;5054147;28;20236;-86
2022/01/13 07:25:31;;;;;;;81.90;30.70;;;5.70;95.10;;;;;;5053830;28;20550;-86
2022/01/13 07:27:58;;;;;;;75.33;29.63;;;5.70;95.10;;;;;;5052490;28;20180;-85
2022/01/13 07:30:24;;;;;;;76.37;30.13;;;5.70;95.10;;;;;;5052507;28;20187;-86
2022/01/13 07:32:49;;;;;;;85.77;32.37;;;5.60;95.10;;;;;;5053820;28;20519;-86
2022/01/13 07:35:15;;;;;;;91.53;32.13;;;5.70;95.20;;;;;;5052662;28;20197;-86
2022/01/13 07:37:42;;;;;;;91.87;32.60;;;5.70;95.10;;;;;;5052342;28;20175;-86
2022/01/13 07:40:13;;;;;;;85.07;33.80;;;5.80;95.10;;;;;;5052353;28;20555;-86
2022/01/13 07:42:42;;;;;;;56.67;24.47;;;5.70;95.10;;;;;;5052346;28;20648;-86
2022/01/13 07:45:09;;;;;;;89.43;33.20;;;5.70;95.10;;;;;;5052224;28;20182;-86
2022/01/13 07:47:35;;;;;;;82.13;31.20;;;5.60;95.10;;;;;;5052474;28;20801;-86
2022/01/13 07:50:00;;;;;;;76.40;29.30;;;5.70;95.10;;;;;;5053614;28;20183;-86
2022/01/13 07:52:27;;;;;;;77.03;31.20;;;5.70;95.00;;;;;;5052196;28;20178;-86
2022/01/13 07:54:53;;;;;;;81.70;32.97;;;5.70;95.00;;;;;;5052107;28;20551;-86
2022/01/13 07:57:18;;;;;;;75.23;30.30;;;5.60;95.00;;;;;;5052009;28;20224;-86
2022/01/13 07:59:44;;;;;;;81.93;31.50;;;5.60;95.00;;;;;;5053431;28;20202;-86
2022/01/13 08:02:10;;;;;;;85.77;34.10;;;5.60;95.10;;;;;;5052028;28;20541;-86
2022/01/13 08:04:35;;;;;;;85.13;33.10;;;5.60;95.10;;;;;;5051911;28;20273;-85
2022/01/13 08:07:01;;;;;;;83.63;33.40;;;5.60;95.10;;;;;;5051963;28;20194;-86
2022/01/13 08:09:27;;;;;;;82.20;32.63;;;5.60;95.10;;;;;;5053274;28;20254;-86
2022/01/13 08:11:52;;;;;;;81.70;33.20;;;5.50;95.20;;;;;;5051921;28;20183;-86
2022/01/13 08:14:19;;;;;;;78.33;29.80;;;5.50;95.20;;;;;;5052015;28;20174;-86
2022/01/13 08:16:45;;;;;;;86.93;32.87;;;5.50;95.20;;;;;;5053116;28;20211;-86
2022/01/13 08:21:55;;;;;;;87.77;34.30;;;5.50;95.30;;;;;;5053588;28;20309;-86
2022/01/13 08:24:21;;;;;;;85.70;30.83;;;5.50;95.30;;;;;;5053213;28;20209;-86
2022/01/13 08:26:47;;;;;;;77.50;31.20;;;5.40;95.40;;;;;;5051616;28;20191;-85
2022/01/13 08:29:12;;;;;;;86.67;31.73;;;5.50;95.50;;;;;;5053044;28;20247;-86
2022/01/13 08:31:38;;;;;;;64.63;26.07;;;5.40;95.50;;;;;;5052939;28;20211;-86
2022/01/13 08:34:04;;;;;;;78.77;29.20;;;5.40;95.60;;;;;;5051711;28;20199;-85
2022/01/13 08:36:29;;;;;;;78.27;29.10;;;5.40;95.70;;;;;;5052831;28;20228;-85
2022/01/13 08:38:55;;;;;;;91.30;34.30;;;5.40;95.70;;;;;;5055805;28;20573;-87
2022/01/13 08:41:21;;;;;;;88.63;32.57;;;5.40;95.80;;;;;;5056151;28;20166;-86
2022/01/13 08:43:46;;;;;;;78.37;30.07;;;5.40;95.80;;;;;;5052043;28;20552;-86
2022/01/13 08:46:12;;;;;;;82.00;31.13;;;5.40;95.90;;;;;;5053661;28;20232;-87
2022/01/13 08:48:38;;;;;;;82.83;29.83;;;5.40;95.90;;;;;;5051518;28;20266;-86
2022/01/13 08:51:04;;;;;;;79.10;29.17;;;5.40;95.90;;;;;;5051546;28;20178;-86
2022/01/13 08:53:29;;;;;;;82.93;31.03;;;5.50;95.90;;;;;;5053595;28;20177;-86
2022/01/13 08:55:56;;;;;;;86.77;32.50;;;5.50;96.00;;;;;;5052874;28;20251;-85
2022/01/13 08:58:25;;;;;;;86.33;31.10;;;5.50;96.00;;;;;;5052641;28;20193;-86
2022/01/13 09:00:53;;;;;;;93.40;30.60;;;5.50;96.00;;;;;;5053750;28;20173;-86
2022/01/13 09:03:19;;;;;;;88.17;32.43;;;5.50;96.00;;;;;;5052840;28;20177;-86
2022/01/13 09:05:45;;;;;;;77.93;30.23;;;5.50;96.10;;;;;;5051359;28;20657;-86
2022/01/13 09:08:12;;;;;;;80.20;30.20;;;5.50;96.10;;;;;;5052627;28;20171;-86
2022/01/13 09:10:40;;;;;;;75.47;27.83;;;5.60;96.20;;;;;;5052740;28;20201;-85
2022/01/13 09:13:12;;;;;;;78.03;28.07;;;5.60;96.10;;;;;;5052571;28;20203;-86
2022/01/13 09:15:41;;;;;;;83.87;27.67;;;5.60;96.20;;;;;;5052421;28;20256;-86
2022/01/13 09:18:15;;;;;;;60.13;22.67;;;5.60;96.20;;;;;;5052473;28;20618;-86
2022/01/13 09:20:41;;;;;;;62.73;23.77;;;5.60;96.20;;;;;;5051347;28;20172;-86
2022/01/13 09:23:08;;;;;;;73.83;26.63;;;5.70;96.30;;;;;;5051184;28;20169;-86
2022/01/13 09:25:35;;;;;;;63.50;23.60;;;5.70;96.30;;;;;;5051101;28;20194;-85
2022/01/13 09:28:03;;;;;;;52.30;21.07;;;5.70;96.30;;;;;;5051232;28;20182;-86
2022/01/13 09:30:29;;;;;;;73.47;26.40;;;5.70;96.30;;;;;;5053511;28;20224;-86
2022/01/13 09:32:55;;;;;;;78.33;28.30;;;5.60;96.30;;;;;;5057083;28;20174;-86
2022/01/13 09:35:21;;;;;;;70.00;23.73;;;5.70;96.30;;;;;;5054593;28;20180;-86
2022/01/13 09:37:47;;;;;;;81.30;28.40;;;5.60;96.30;;;;;;5055837;28;20628;-86
2022/01/13 09:40:13;;;;;;;68.37;24.37;;;5.60;96.40;;;;;;5056045;28;20201;-86
2022/01/13 09:42:42;;;;;;;73.27;25.53;;;5.60;96.40;;;;;;5054536;28;20178;-86
2022/01/13 09:45:09;;;;;;;89.60;29.93;;;5.70;96.40;;;;;;5054371;28;20263;-85
2022/01/13 09:47:37;;;;;;;67.10;25.73;;;5.70;96.40;;;;;;5055622;28;20174;-85
2022/01/13 09:50:10;;;;;;;77.57;26.27;;;5.70;96.40;;;;;;5054364;28;20185;-86
2022/01/13 09:52:36;;;;;;;50.70;17.80;;;5.70;96.40;;;;;;5054363;28;20182;-86
2022/01/13 09:55:03;;;;;;;88.73;29.00;;;5.70;96.50;;;;;;5054294;28;20177;-86
2022/01/13 09:57:29;;;;;;;86.17;25.47;;;5.70;96.40;;;;;;5055848;28;20178;-86
2022/01/13 09:59:58;;;;;;;89.07;29.17;;;5.70;96.50;;;;;;5054139;28;20202;-86
2022/01/13 10:02:28;;;;;;;99.00;31.20;;;5.70;96.50;;;;;;5054121;28;20530;-87
2022/01/13 10:04:55;;;;;;;83.20;29.57;;;5.70;96.50;;;;;;5055486;28;20150;-86
2022/01/13 10:07:38;;;;;;;103.83;33.43;;;5.70;96.50;;;;;;5055211;28;20189;-86
2022/01/13 10:10:08;;;;;;;82.27;26.87;;;5.70;96.50;;;;;;5055242;28;20253;-87
2022/01/13 10:12:38;;;;;;;84.80;26.97;;;5.70;96.50;;;;;;5054195;28;20188;-87
2022/01/13 10:17:58;;;;;;;70.93;24.07;;;5.70;96.50;;;;;;5056789;28;20649;-87
2022/01/13 10:20:24;;;;;;;88.03;29.77;;;5.80;96.60;;;;;;5055291;28;20164;-86
2022/01/13 10:22:50;;;;;;;84.13;25.67;;;5.80;96.60;;;;;;5055374;28;20170;-87
2022/01/13 10:25:31;;;;;;;108.80;31.87;;;5.80;96.60;;;;;;5055061;28;20181;-85
2022/01/13 10:28:13;;;;;;;107.67;33.73;;;5.80;96.60;;;;;;5053852;28;20655;-86
2022/01/13 10:30:39;;;;;;;88.80;28.97;;;5.80;96.60;;;;;;5053827;28;20162;-87
2022/01/13 10:33:27;;;;;;;97.20;32.40;;;5.80;96.60;;;;;;5053715;28;20202;-87
2022/01/13 10:36:04;;;;;;;75.80;22.97;;;5.80;96.60;;;;;;5053683;28;20194;-88
2022/01/13 10:38:53;;;;;;;83.30;28.50;;;5.80;96.60;;;;;;5054879;28;20185;-87
2022/01/13 10:41:37;;;;;;;117.07;36.50;;;5.80;96.60;;;;;;5052824;28;20166;-87
2022/01/13 10:44:21;;;;;;;122.80;37.60;;;5.90;96.60;;;;;;5053625;28;20304;-87
2022/01/13 10:47:00;;;;;;;116.23;39.20;;;5.80;96.60;;;;;;5054311;28;20253;-86
2022/01/13 10:49:37;;;;;;;121.93;36.60;;;5.90;96.70;;;;;;5053394;28;20178;-87
2022/01/13 10:52:24;;;;;;;128.43;39.53;;;5.80;96.70;;;;;;5054523;28;20665;-86
2022/01/13 10:55:00;;;;;;;128.53;41.47;;;5.80;96.70;;;;;;5053545;28;20178;-87
2022/01/13 10:57:27;;;;;;;117.63;38.00;;;5.80;96.70;;;;;;5054373;28;20678;-87
2022/01/13 10:59:53;;;;;;;92.47;28.33;;;5.90;96.70;;;;;;5053059;28;20728;-87
2022/01/13 11:02:20;;;;;;;110.10;33.97;;;5.90;96.70;;;;;;5053046;28;20261;-87
2022/01/13 11:04:47;;;;;;;99.90;30.83;;;5.90;96.70;;;;;;5053020;28;20174;-87
2022/01/13 11:07:24;;;;;;;83.83;25.83;;;5.90;96.70;;;;;;5054208;28;20191;-86
2022/01/13 11:09:55;;;;;;;78.50;25.37;;;5.90;96.70;;;;;;5053012;28;20696;-87
2022/01/13 11:12:37;;;;;;;91.07;25.60;;;5.90;96.70;;;;;;5052873;28;20224;-87
2022/01/13 11:15:06;;;;;;;113.93;36.30;;;5.90;96.70;;;;;;5052795;28;20276;-87
2022/01/13 11:17:38;;;;;;;120.33;37.07;;;6.00;96.70;;;;;;5166223;22;20235;-86
2022/01/13 11:20:12;;;;;;;91.93;31.07;;;6.00;96.70;;;;;;5056308;28;20191;-87
2022/01/13 11:22:41;;;;;;;108.80;34.27;;;6.00;96.70;;;;;;5074317;28;20193;-87
2022/01/13 11:25:09;;;;;;;106.40;33.73;;;6.00;96.70;;;;;;5073978;28;20715;-86
2022/01/13 11:27:35;;;;;;;111.20;35.57;;;6.10;96.70;;;;;;5073982;28;20192;-86
2022/01/13 11:30:04;;;;;;;106.73;34.03;;;6.10;96.60;;;;;;5056048;28;20189;-86
2022/01/13 11:32:30;;;;;;;103.37;33.10;;;6.20;96.60;;;;;;5073762;28;20182;-86
2022/01/13 11:35:00;;;;;;;115.63;33.23;;;6.20;96.60;;;;;;5055866;28;20178;-86
2022/01/13 11:37:28;;;;;;;103.23;32.57;;;6.20;96.50;;;;;;5073718;28;20197;-86
2022/01/13 11:39:53;;;;;;;105.50;34.07;;;6.20;96.50;;;;;;5056099;28;20201;-86
2022/01/13 11:42:19;;;;;;;104.57;34.60;;;6.20;96.40;;;;;;5074127;28;20254;-87
2022/01/13 11:45:05;;;;;;;105.27;34.07;;;6.30;96.40;;;;;;5056216;28;20171;-87
2022/01/13 11:47:31;;;;;;;104.80;32.30;;;6.30;96.40;;;;;;5074965;28;20279;-87
2022/01/13 11:50:22;;;;;;;114.27;36.83;;;6.20;96.30;;;;;;5056247;28;20210;-87
2022/01/13 11:52:52;;;;;;;108.70;32.70;;;6.30;96.30;;;;;;5055972;28;20228;-86
2022/01/13 11:55:36;;;;;;;112.93;37.13;;;6.20;96.30;;;;;;5055967;28;20268;-92
2022/01/13 11:58:21;;;;;;;114.57;38.37;;;6.20;96.30;;;;;;5056218;28;20198;-92
2022/01/13 12:00:50;;;;;;;115.37;38.27;;;6.20;96.20;;;;;;5056246;28;20164;-93
2022/01/13 12:03:23;;;;;;;105.40;34.77;;;6.30;96.20;;;;;;5055895;28;20178;-93
2022/01/13 12:05:49;;;;;;;101.90;31.67;;;6.30;96.20;;;;;;5057535;28;20256;-93
2022/01/13 12:08:38;;;;;;;117.80;35.77;;;6.20;96.10;;;;;;5059703;28;20642;-94
2022/01/13 12:11:05;;;;;;;105.00;36.60;;;6.30;96.10;;;;;;5057239;28;20171;-91
2022/01/13 12:13:39;;;;;;;101.17;35.77;;;6.30;96.10;;;;;;5062430;28;20186;-92
2022/01/13 12:16:08;;;;;;;112.03;35.97;;;6.30;96.10;;;;;;5070128;28;20210;-93
2022/01/13 12:18:49;;;;;;;106.60;34.27;;;6.30;96.10;;;;;;5061030;28;20663;-94
2022/01/13 12:21:29;;;;;;;105.43;35.93;;;6.30;96.00;;;;;;5063062;28;20197;-92
2022/01/13 12:23:56;;;;;;;101.27;34.23;;;6.30;96.00;;;;;;5057835;28;20691;-91
2022/01/13 12:26:34;;;;;;;101.53;35.37;;;6.30;96.00;;;;;;5059721;28;20198;-92
2022/01/13 12:29:21;;;;;;;106.97;34.27;;;6.30;96.00;;;;;;5058566;28;20186;-93
2022/01/13 12:32:04;;;;;;;101.80;36.27;;;6.40;96.00;;;;;;5059701;28;20567;-93
2022/01/13 12:34:33;;;;;;;104.07;33.37;;;6.30;95.90;;;;;;5063971;28;20186;-93
2022/01/13 12:37:19;;;;;;;105.10;34.83;;;6.40;96.00;;;;;;5056881;28;20202;-92
2022/01/13 12:40:23;;;;;;;110.83;35.10;;;6.40;95.90;;;;;;5061983;28;20197;-92
2022/01/13 12:42:52;;;;;;;106.57;34.07;;;6.50;95.90;;;;;;5046328;28;20189;-93
2022/01/13 12:45:29;;;;;;;95.07;30.93;;;6.40;95.90;;;;;;5062634;28;20650;-92
2022/01/13 12:48:06;;;;;;;97.47;36.27;;;6.50;95.80;;;;;;5056635;28;20198;-92
2022/01/13 12:50:39;;;;;;;88.90;33.10;;;6.50;95.90;;;;;;5058825;28;20216;-92
2022/01/13 12:53:20;;;;;;;99.80;36.40;;;6.50;95.80;;;;;;5057849;28;20167;-93
2022/01/13 12:56:07;;;;;;;97.77;33.90;;;6.50;95.70;;;;;;5061839;28;20186;-92
2022/01/13 12:58:36;;;;;;;98.43;31.10;;;6.60;95.70;;;;;;5062615;28;20247;-93
2022/01/13 13:01:08;;;;;;;81.27;30.33;;;6.60;95.70;;;;;;5059245;28;20178;-92
2022/01/13 13:03:34;;;;;;;79.17;31.07;;;6.60;95.60;;;;;;5070696;28;20179;-92
2022/01/13 13:06:07;;;;;;;85.63;31.93;;;6.60;95.60;;;;;;5070250;28;20171;-92